Aviation Digital Data Service (ADDS)

Output produced by TAFs form (1040 UTC 03 July 2015)
found at http://aviationweather.gov/adds/tafs/
 
KFMN 030731Z 0308/0406 10006KT P6SM SCT100 
     FM031900 VRB05KT P6SM FEW090 
     FM040100 25010KT P6SM VCTS SCT090CB SCT150 
     FM040300 28008KT P6SM VCSH BKN090